Time;durP1;ratioP1;P1;durP2;ratioP2;P2;SDS_P1;SDS_P2;PMS_P1;PMS_P2;Temp;Humidity;BMP_temperature;BMP_pressure;BME280_temperature;BME280_humidity;BME280_pressure;Samples;Min_cycle;Max_cycle;Signal;HPM_P1;HPM_P2
2022/04/13 00:00:21;;;;;;;20.57;11.03;;;12.40;99.90;;;;;;5097781;28;20190;-66
2022/04/13 00:02:49;;;;;;;17.10;10.40;;;12.40;99.90;;;;;;5100790;28;20198;-66
2022/04/13 00:05:18;;;;;;;16.60;10.47;;;12.40;99.90;;;;;;5098945;28;20187;-66
2022/04/13 00:07:48;;;;;;;15.40;10.13;;;12.40;99.90;;;;;;5104769;28;20566;-66
2022/04/13 00:10:17;;;;;;;21.60;10.37;;;12.30;99.90;;;;;;5099242;28;20281;-66
2022/04/13 00:12:45;;;;;;;13.73;10.70;;;12.30;99.90;;;;;;5102665;28;20865;-66
2022/04/13 00:15:15;;;;;;;19.47;10.97;;;12.40;99.90;;;;;;5096217;28;20249;-66
2022/04/13 00:17:44;;;;;;;17.00;11.00;;;12.30;99.90;;;;;;5090468;28;20286;-66
2022/04/13 00:20:13;;;;;;;17.83;11.13;;;12.30;99.90;;;;;;5097659;28;20269;-66
2022/04/13 00:22:41;;;;;;;23.20;11.30;;;12.20;99.90;;;;;;5093083;28;20187;-66
2022/04/13 00:25:09;;;;;;;14.13;10.23;;;12.20;99.90;;;;;;5098824;28;20454;-66
2022/04/13 00:27:38;;;;;;;17.47;10.90;;;12.20;99.90;;;;;;5099880;28;20219;-66
2022/04/13 00:30:07;;;;;;;18.13;10.03;;;12.10;99.90;;;;;;5099469;28;20560;-66
2022/04/13 00:32:37;;;;;;;17.70;10.67;;;12.10;99.90;;;;;;5093993;28;20210;-66
2022/04/13 00:35:06;;;;;;;18.90;10.13;;;12.00;99.90;;;;;;5100092;28;20201;-66
2022/04/13 00:37:38;;;;;;;17.33;11.00;;;12.00;99.90;;;;;;5093641;28;20225;-66
2022/04/13 00:40:07;;;;;;;17.53;10.87;;;11.90;99.90;;;;;;5099780;28;20286;-66
2022/04/13 00:42:35;;;;;;;18.63;11.40;;;11.90;99.90;;;;;;5098776;28;20226;-66
2022/04/13 00:45:06;;;;;;;21.73;11.50;;;11.80;99.90;;;;;;5097866;28;20195;-66
2022/04/13 00:47:41;;;;;;;25.30;12.30;;;11.80;99.90;;;;;;5101246;28;20199;-66
2022/04/13 00:50:10;;;;;;;19.23;12.23;;;11.90;99.90;;;;;;5092634;28;20285;-66
2022/04/13 00:52:44;;;;;;;22.13;11.97;;;11.90;99.90;;;;;;5094221;28;20214;-66
2022/04/13 00:55:14;;;;;;;19.37;11.20;;;11.90;99.90;;;;;;5097860;28;20282;-66
2022/04/13 00:57:43;;;;;;;15.83;10.80;;;12.00;99.90;;;;;;5105554;28;20745;-66
2022/04/13 01:00:12;;;;;;;18.80;11.03;;;11.90;99.90;;;;;;5097067;28;20554;-66
2022/04/13 01:02:44;;;;;;;19.77;11.30;;;11.90;99.90;;;;;;5090945;28;20202;-66
2022/04/13 01:05:13;;;;;;;17.17;10.97;;;11.90;99.90;;;;;;5099262;28;20223;-66
2022/04/13 01:07:42;;;;;;;25.40;11.97;;;11.90;99.90;;;;;;5099135;28;20551;-66
2022/04/13 01:10:11;;;;;;;23.53;11.70;;;11.90;99.90;;;;;;5096112;28;20207;-66
2022/04/13 01:12:42;;;;;;;22.70;11.23;;;11.90;99.90;;;;;;5091705;28;20221;-66
2022/04/13 01:15:11;;;;;;;22.43;12.33;;;11.90;99.90;;;;;;5121891;27;20340;-66
2022/04/13 01:17:40;;;;;;;22.60;12.07;;;12.00;99.90;;;;;;5096464;28;20205;-66
2022/04/13 01:20:12;;;;;;;18.37;11.00;;;12.00;99.90;;;;;;5095873;28;20187;-66
2022/04/13 01:22:42;;;;;;;23.87;11.57;;;12.00;99.90;;;;;;5096461;28;20210;-66
2022/04/13 01:25:13;;;;;;;16.60;11.17;;;12.00;99.90;;;;;;5091843;28;20603;-66
2022/04/13 01:27:41;;;;;;;21.77;12.13;;;12.00;99.90;;;;;;5091165;28;20734;-66
2022/04/13 01:30:11;;;;;;;21.33;11.83;;;11.90;99.90;;;;;;5115042;27;20316;-66
2022/04/13 01:32:40;;;;;;;24.97;11.53;;;12.00;99.90;;;;;;5128858;27;20219;-66
2022/04/13 01:35:09;;;;;;;19.03;11.83;;;12.00;99.90;;;;;;5100233;27;20298;-66
2022/04/13 01:37:37;;;;;;;17.17;11.70;;;12.00;99.90;;;;;;5097554;28;20227;-66
2022/04/13 01:40:08;;;;;;;19.20;11.80;;;12.00;99.90;;;;;;5100489;27;20199;-66
2022/04/13 01:42:36;;;;;;;16.60;11.10;;;11.90;99.90;;;;;;5099361;28;20186;-66
2022/04/13 01:45:05;;;;;;;19.20;12.10;;;11.90;99.90;;;;;;5101666;27;20186;-66
2022/04/13 01:47:33;;;;;;;16.83;11.87;;;11.90;99.90;;;;;;5090487;28;20257;-66
2022/04/13 01:50:02;;;;;;;19.43;11.50;;;11.90;99.90;;;;;;5100858;28;20282;-66
2022/04/13 01:52:30;;;;;;;20.67;11.50;;;11.90;99.90;;;;;;5093813;28;20597;-66
2022/04/13 01:54:58;;;;;;;19.57;12.20;;;11.90;99.90;;;;;;5105994;28;20265;-66
2022/04/13 01:57:28;;;;;;;17.13;11.13;;;11.90;99.90;;;;;;5098845;27;20198;-67
2022/04/13 01:59:59;;;;;;;20.13;11.63;;;11.90;99.90;;;;;;5100463;28;20299;-66
2022/04/13 02:02:27;;;;;;;16.77;12.43;;;11.90;99.90;;;;;;5099549;27;20636;-66
2022/04/13 02:04:56;;;;;;;18.73;12.47;;;11.80;99.90;;;;;;5099221;28;20213;-66
2022/04/13 02:07:24;;;;;;;19.23;12.00;;;11.80;99.90;;;;;;5089009;28;20193;-66
2022/04/13 02:09:52;;;;;;;17.67;12.17;;;11.80;99.90;;;;;;5103269;27;20197;-66
2022/04/13 02:12:21;;;;;;;25.27;12.97;;;11.80;99.90;;;;;;5103078;28;20302;-66
2022/04/13 02:14:50;;;;;;;19.07;13.23;;;11.80;99.90;;;;;;5103573;28;20309;-66
2022/04/13 02:17:21;;;;;;;22.47;13.50;;;11.80;99.90;;;;;;5101112;28;20290;-66
2022/04/13 02:19:49;;;;;;;21.73;13.30;;;11.80;99.90;;;;;;5106923;28;20199;-66
2022/04/13 02:22:17;;;;;;;21.00;13.00;;;11.80;99.90;;;;;;5100581;27;20204;-66
2022/04/13 02:25:07;;;;;;;17.80;13.37;;;11.70;99.90;;;;;;5130162;27;20195;-66
2022/04/13 02:27:37;;;;;;;25.70;14.27;;;11.60;99.90;;;;;;5095992;28;20225;-66
2022/04/13 02:30:09;;;;;;;25.33;13.77;;;11.60;99.90;;;;;;5103399;27;20274;-66
2022/04/13 02:32:41;;;;;;;30.43;16.90;;;11.70;99.90;;;;;;5096625;28;20581;-66
2022/04/13 02:35:11;;;;;;;25.73;16.30;;;11.70;99.90;;;;;;5107340;28;20187;-66
2022/04/13 02:37:40;;;;;;;27.37;16.20;;;11.70;99.90;;;;;;5097806;28;20286;-66
2022/04/13 02:40:09;;;;;;;20.67;13.50;;;11.70;99.90;;;;;;5101726;28;20314;-66
2022/04/13 02:42:38;;;;;;;23.33;13.90;;;11.80;99.90;;;;;;5102100;27;20178;-66
2022/04/13 02:45:09;;;;;;;19.23;13.57;;;11.80;99.90;;;;;;5097070;27;20194;-66
2022/04/13 02:47:37;;;;;;;23.27;13.87;;;11.80;99.90;;;;;;5097021;28;20184;-66
2022/04/13 02:50:07;;;;;;;26.83;13.37;;;11.80;99.90;;;;;;5100564;27;20561;-66
2022/04/13 02:52:36;;;;;;;18.03;12.63;;;11.80;99.90;;;;;;5084324;28;20218;-66
2022/04/13 02:55:05;;;;;;;18.97;12.60;;;11.90;99.90;;;;;;5103957;28;20618;-66
2022/04/13 02:57:33;;;;;;;27.27;14.40;;;11.90;99.90;;;;;;5095960;28;20209;-66
2022/04/13 03:00:02;;;;;;;19.27;13.00;;;11.90;99.90;;;;;;5098089;28;20207;-67
2022/04/13 03:02:31;;;;;;;19.83;13.03;;;11.80;99.90;;;;;;5103101;28;20576;-66
2022/04/13 03:05:00;;;;;;;17.47;12.60;;;11.80;99.90;;;;;;5092851;27;20202;-66
2022/04/13 03:07:30;;;;;;;22.30;13.00;;;11.80;99.90;;;;;;5101354;28;20665;-66
2022/04/13 03:09:58;;;;;;;19.20;12.80;;;11.80;99.90;;;;;;5094463;27;20198;-66
2022/04/13 03:12:27;;;;;;;18.73;14.03;;;11.70;99.90;;;;;;5103120;28;20225;-66
2022/04/13 03:14:56;;;;;;;23.67;14.03;;;11.60;99.90;;;;;;5100068;28;20337;-66
2022/04/13 03:17:24;;;;;;;22.27;13.40;;;11.60;99.90;;;;;;5094260;28;20194;-66
2022/04/13 03:19:54;;;;;;;23.03;14.67;;;11.50;99.90;;;;;;5097402;28;20198;-66
2022/04/13 03:22:23;;;;;;;23.00;14.23;;;11.40;99.90;;;;;;5095406;28;20211;-66
2022/04/13 03:24:52;;;;;;;20.03;13.53;;;11.30;99.90;;;;;;5094247;28;20278;-66
2022/04/13 03:27:21;;;;;;;28.77;14.33;;;11.20;99.90;;;;;;5100986;28;20535;-66
2022/04/13 03:29:49;;;;;;;27.07;14.20;;;11.10;99.90;;;;;;5095745;28;20195;-66
2022/04/13 03:32:17;;;;;;;22.30;14.37;;;11.00;99.90;;;;;;5092305;28;20214;-66
2022/04/13 03:34:46;;;;;;;30.23;15.57;;;11.00;99.90;;;;;;5103594;27;20198;-66
2022/04/13 03:37:15;;;;;;;24.27;15.17;;;10.90;99.90;;;;;;5099861;27;20617;-66
2022/04/13 03:39:44;;;;;;;22.17;14.37;;;10.90;99.90;;;;;;5099361;27;20233;-66
2022/04/13 03:42:13;;;;;;;25.57;14.80;;;10.80;99.90;;;;;;5097313;28;20274;-66
2022/04/13 03:44:41;;;;;;;24.67;15.60;;;10.70;99.90;;;;;;5097404;27;20290;-66
2022/04/13 03:47:10;;;;;;;20.53;14.17;;;10.70;99.90;;;;;;5094553;27;20197;-66
2022/04/13 03:49:39;;;;;;;24.80;14.00;;;10.70;99.90;;;;;;5101564;27;20209;-66
2022/04/13 03:52:08;;;;;;;21.83;14.37;;;10.60;99.90;;;;;;5103200;28;20561;-66
2022/04/13 03:54:38;;;;;;;22.50;13.80;;;10.50;99.90;;;;;;5102343;28;20226;-66
2022/04/13 03:57:06;;;;;;;23.57;13.23;;;10.40;99.90;;;;;;5099695;27;20187;-66
2022/04/13 03:59:34;;;;;;;27.33;13.97;;;10.40;99.90;;;;;;5102684;28;20201;-66
2022/04/13 04:02:03;;;;;;;23.23;14.40;;;10.30;99.90;;;;;;5091080;28;20681;-66
2022/04/13 04:04:31;;;;;;;24.77;14.00;;;10.20;99.90;;;;;;5098315;27;20186;-66
2022/04/13 04:07:00;;;;;;;26.17;14.87;;;10.20;99.90;;;;;;5076795;28;20282;-66
2022/04/13 04:09:28;;;;;;;21.57;14.13;;;10.10;99.90;;;;;;5101517;28;20190;-66
2022/04/13 04:11:58;;;;;;;23.03;15.03;;;10.00;99.90;;;;;;5105789;28;20222;-66
2022/04/13 04:14:26;;;;;;;24.57;14.30;;;9.90;99.90;;;;;;5101167;28;20585;-66
2022/04/13 04:16:55;;;;;;;22.87;14.40;;;9.90;99.90;;;;;;5090680;28;20199;-66
2022/04/13 04:19:23;;;;;;;29.30;14.77;;;9.90;99.90;;;;;;5096209;28;20202;-66
2022/04/13 04:21:51;;;;;;;17.90;13.93;;;9.80;99.90;;;;;;5101584;28;20209;-66
2022/04/13 04:24:20;;;;;;;20.93;13.83;;;9.70;99.90;;;;;;5098436;28;20200;-66
2022/04/13 04:26:49;;;;;;;24.90;15.27;;;9.70;99.90;;;;;;5099290;28;20202;-66
2022/04/13 04:29:18;;;;;;;22.20;13.77;;;9.70;99.90;;;;;;5096086;28;20195;-66
2022/04/13 04:31:54;;;;;;;24.43;14.40;;;9.60;99.90;;;;;;5099063;28;20218;-66
2022/04/13 04:34:24;;;;;;;24.80;13.93;;;9.60;99.90;;;;;;5095569;28;20659;-66
2022/04/13 04:36:52;;;;;;;22.60;14.03;;;9.50;99.90;;;;;;5097555;28;20232;-66
2022/04/13 04:39:21;;;;;;;27.07;14.87;;;9.50;99.90;;;;;;5100270;28;20260;-66
2022/04/13 04:41:50;;;;;;;27.73;14.03;;;9.50;99.90;;;;;;5096405;28;20591;-66
2022/04/13 04:44:20;;;;;;;25.70;14.90;;;9.50;99.90;;;;;;5101264;28;20199;-66
2022/04/13 04:46:48;;;;;;;22.20;14.97;;;9.50;99.90;;;;;;5099078;28;20236;-66
2022/04/13 04:49:17;;;;;;;23.63;14.27;;;9.50;99.90;;;;;;5094394;28;20199;-66
2022/04/13 04:51:45;;;;;;;22.90;13.50;;;9.50;99.90;;;;;;5093475;28;20685;-66
2022/04/13 04:54:14;;;;;;;29.87;14.70;;;9.50;99.90;;;;;;5085545;28;20207;-66
2022/04/13 04:56:42;;;;;;;23.97;14.70;;;9.50;99.90;;;;;;5098768;28;20237;-66
2022/04/13 04:59:11;;;;;;;26.10;14.67;;;9.60;99.90;;;;;;5092322;28;20191;-66
2022/04/13 05:01:40;;;;;;;23.40;14.97;;;9.60;99.90;;;;;;5086593;28;20767;-66
2022/04/13 05:04:10;;;;;;;32.77;14.73;;;9.60;99.90;;;;;;5100362;27;20239;-66
2022/04/13 05:06:38;;;;;;;23.73;14.67;;;9.70;99.90;;;;;;5097340;28;20255;-66
2022/04/13 05:09:07;;;;;;;23.97;14.67;;;9.70;99.90;;;;;;5101380;28;20287;-66
2022/04/13 05:11:35;;;;;;;26.40;15.87;;;9.70;99.90;;;;;;5099465;27;20423;-66
2022/04/13 05:14:05;;;;;;;24.03;15.53;;;9.70;99.90;;;;;;5102111;28;20291;-66
2022/04/13 05:16:33;;;;;;;28.60;15.30;;;9.80;99.90;;;;;;5098437;28;20473;-66
2022/04/13 05:19:03;;;;;;;24.20;14.73;;;9.90;99.90;;;;;;5102181;27;20197;-66
2022/04/13 05:21:32;;;;;;;31.03;14.77;;;9.90;99.90;;;;;;5103314;28;20223;-66
2022/04/13 05:24:00;;;;;;;26.13;15.77;;;10.00;99.90;;;;;;5129171;27;20211;-66
2022/04/13 05:26:29;;;;;;;21.00;14.07;;;10.10;99.90;;;;;;5093233;28;20286;-66
2022/04/13 05:28:57;;;;;;;29.43;16.03;;;10.10;99.90;;;;;;5104143;28;20194;-66
2022/04/13 05:31:26;;;;;;;21.87;14.17;;;10.20;99.90;;;;;;5099261;27;20214;-66
2022/04/13 05:33:55;;;;;;;20.00;14.27;;;10.30;99.90;;;;;;5096621;27;20227;-66
2022/04/13 05:36:25;;;;;;;21.70;14.70;;;10.40;99.90;;;;;;5091580;28;20199;-66
2022/04/13 05:38:54;;;;;;;25.77;15.20;;;10.50;99.90;;;;;;5100684;28;20251;-66
2022/04/13 05:41:22;;;;;;;30.90;16.50;;;10.50;99.90;;;;;;5093365;28;20212;-66
2022/04/13 05:43:51;;;;;;;25.63;14.60;;;10.60;99.90;;;;;;5104768;27;20448;-66
2022/04/13 05:46:19;;;;;;;48.10;27.20;;;10.70;99.90;;;;;;5100139;28;20230;-66
2022/04/13 05:48:48;;;;;;;43.63;24.50;;;10.80;99.90;;;;;;5099430;28;20195;-66
2022/04/13 05:51:16;;;;;;;32.27;17.30;;;11.00;99.90;;;;;;5101454;28;20206;-66
2022/04/13 05:53:46;;;;;;;31.87;16.23;;;11.10;99.90;;;;;;5104009;28;20202;-66
2022/04/13 05:56:15;;;;;;;22.00;14.77;;;11.10;99.90;;;;;;5098083;28;20231;-66
2022/04/13 05:58:44;;;;;;;27.90;15.00;;;11.20;99.90;;;;;;5098044;28;20229;-66
2022/04/13 06:01:12;;;;;;;28.33;14.57;;;11.30;99.90;;;;;;5097721;28;20221;-66
2022/04/13 06:03:41;;;;;;;22.60;14.23;;;11.30;99.90;;;;;;5092672;27;20233;-66
2022/04/13 06:06:11;;;;;;;22.73;13.83;;;11.30;99.90;;;;;;5095401;28;20195;-66
2022/04/13 06:08:39;;;;;;;26.77;14.17;;;11.40;99.90;;;;;;5103344;28;20295;-66
2022/04/13 06:11:09;;;;;;;22.63;13.37;;;11.40;99.90;;;;;;5096387;28;20251;-66
2022/04/13 06:13:38;;;;;;;29.20;14.17;;;11.40;99.90;;;;;;5111542;27;20294;-66
2022/04/13 06:16:08;;;;;;;20.27;12.93;;;11.50;99.90;;;;;;5102761;28;20284;-66
2022/04/13 06:18:36;;;;;;;23.60;13.60;;;11.60;99.90;;;;;;5104327;28;20203;-66
2022/04/13 06:21:08;;;;;;;18.57;13.10;;;11.60;99.90;;;;;;5094324;28;20187;-66
2022/04/13 06:23:40;;;;;;;17.57;12.90;;;11.60;99.90;;;;;;5099409;28;20199;-66
2022/04/13 06:26:10;;;;;;;22.17;14.17;;;11.70;99.90;;;;;;5096148;28;20203;-66
2022/04/13 06:28:39;;;;;;;22.93;12.63;;;11.80;99.90;;;;;;5098374;28;20195;-66
2022/04/13 06:31:07;;;;;;;19.57;12.37;;;11.90;99.90;;;;;;5095949;28;20285;-66
2022/04/13 06:33:36;;;;;;;23.00;14.50;;;12.00;99.90;;;;;;5100469;28;20221;-66
2022/04/13 06:36:06;;;;;;;25.73;14.50;;;12.20;99.90;;;;;;5095854;27;20251;-66
2022/04/13 06:38:34;;;;;;;19.77;12.73;;;12.30;99.90;;;;;;5104960;27;20520;-66
2022/04/13 06:41:03;;;;;;;21.60;11.40;;;12.40;99.90;;;;;;5109934;27;20194;-66
2022/04/13 06:43:38;;;;;;;15.90;9.93;;;12.50;99.90;;;;;;5108281;28;20237;-66
2022/04/13 06:46:08;;;;;;;17.70;10.10;;;12.50;99.90;;;;;;5099632;28;20199;-66
2022/04/13 06:48:37;;;;;;;18.80;10.20;;;12.50;99.90;;;;;;5095539;28;20198;-66
2022/04/13 06:51:07;;;;;;;16.43;9.43;;;12.60;99.90;;;;;;5097201;27;20203;-66
2022/04/13 06:53:35;;;;;;;16.87;8.60;;;12.70;99.90;;;;;;5105251;27;20332;-66
2022/04/13 06:56:05;;;;;;;12.90;8.90;;;12.70;99.90;;;;;;5101093;28;20215;-66
2022/04/13 06:58:33;;;;;;;16.07;9.27;;;12.80;99.90;;;;;;5104436;27;20649;-66
2022/04/13 07:01:02;;;;;;;11.03;8.70;;;12.90;99.90;;;;;;5096856;27;20199;-66
2022/04/13 07:03:31;;;;;;;15.03;8.93;;;13.00;99.90;;;;;;5115341;27;20471;-66
2022/04/13 07:06:00;;;;;;;14.03;9.47;;;13.10;99.90;;;;;;5095871;28;20195;-66
2022/04/13 07:08:28;;;;;;;15.77;9.23;;;13.20;99.90;;;;;;5098597;28;20444;-66
2022/04/13 07:10:58;;;;;;;15.37;9.97;;;13.20;99.90;;;;;;5095645;28;20283;-66
2022/04/13 07:13:26;;;;;;;24.00;10.40;;;13.40;99.90;;;;;;5094698;28;20187;-66
2022/04/13 07:15:56;;;;;;;17.20;9.70;;;13.50;99.90;;;;;;5095024;28;20213;-66
2022/04/13 07:18:31;;;;;;;15.73;9.83;;;13.60;99.90;;;;;;5090505;28;20187;-67
2022/04/13 07:20:59;;;;;;;15.10;9.70;;;13.70;99.90;;;;;;5096263;28;20206;-66
2022/04/13 07:23:28;;;;;;;18.80;9.10;;;13.80;99.90;;;;;;5092384;28;20203;-66
2022/04/13 07:25:56;;;;;;;15.90;10.00;;;13.90;99.90;;;;;;5095923;27;20199;-68
2022/04/13 07:28:25;;;;;;;16.87;8.97;;;14.10;99.90;;;;;;5092875;28;20205;-66
2022/04/13 07:30:59;;;;;;;14.57;8.97;;;14.30;99.90;;;;;;5093756;28;20226;-66
2022/04/13 07:33:27;;;;;;;11.83;8.23;;;14.40;99.90;;;;;;5097535;27;20191;-66
2022/04/13 07:35:58;;;;;;;17.80;8.40;;;14.70;99.90;;;;;;5097389;27;20314;-66
2022/04/13 07:38:26;;;;;;;14.80;9.17;;;14.80;99.90;;;;;;5097344;28;20203;-66
2022/04/13 07:40:58;;;;;;;12.43;7.93;;;15.00;99.90;;;;;;5096561;28;20277;-67
2022/04/13 07:43:26;;;;;;;14.10;7.57;;;14.90;99.90;;;;;;5095358;27;20198;-66
2022/04/13 07:45:54;;;;;;;13.37;8.10;;;15.00;99.90;;;;;;5089294;28;20234;-66
2022/04/13 07:48:24;;;;;;;15.60;7.30;;;15.10;99.90;;;;;;5119248;27;20293;-66
2022/04/13 07:50:52;;;;;;;16.53;7.40;;;15.20;99.90;;;;;;5101451;27;20356;-66
2022/04/13 07:53:22;;;;;;;13.53;7.90;;;15.10;99.90;;;;;;5106290;28;20196;-66
2022/04/13 07:55:55;;;;;;;11.10;6.93;;;15.10;99.90;;;;;;5096071;27;20292;-66
2022/04/13 07:58:23;;;;;;;13.23;7.60;;;14.90;99.90;;;;;;5091638;27;20206;-66
2022/04/13 08:00:51;;;;;;;11.53;6.97;;;14.80;99.90;;;;;;5098713;28;20219;-66
2022/04/13 08:03:20;;;;;;;15.43;7.03;;;14.80;99.90;;;;;;5097150;28;20231;-66
2022/04/13 08:06:03;;;;;;;12.30;7.63;;;14.70;99.90;;;;;;5093109;28;20219;-66
2022/04/13 08:08:33;;;;;;;12.97;8.13;;;14.60;99.90;;;;;;5099931;27;20190;-66
2022/04/13 08:11:02;;;;;;;14.13;7.70;;;14.70;99.90;;;;;;5095599;27;20242;-66
2022/04/13 08:13:30;;;;;;;12.30;7.37;;;14.70;99.90;;;;;;5093011;28;20499;-66
2022/04/13 08:16:15;;;;;;;15.93;7.97;;;14.80;99.90;;;;;;5093211;28;20245;-66
2022/04/13 08:18:45;;;;;;;10.60;7.77;;;15.00;99.90;;;;;;5124220;27;20191;-66
2022/04/13 08:21:13;;;;;;;9.67;7.73;;;15.20;99.90;;;;;;5090946;28;20196;-66
2022/04/13 08:23:43;;;;;;;11.80;8.00;;;15.40;99.90;;;;;;5099702;28;20278;-66
2022/04/13 08:26:11;;;;;;;13.67;7.27;;;15.40;99.90;;;;;;5101850;28;20249;-66
2022/04/13 08:28:40;;;;;;;12.70;7.13;;;15.40;99.90;;;;;;5094892;27;20602;-66
2022/04/13 08:31:09;;;;;;;15.60;7.73;;;15.50;99.90;;;;;;5096338;28;20187;-66
2022/04/13 08:33:38;;;;;;;8.73;7.23;;;15.50;99.90;;;;;;5105823;28;20191;-66
2022/04/13 08:36:07;;;;;;;16.30;7.87;;;15.60;99.90;;;;;;5102246;28;20234;-66
2022/04/13 08:38:36;;;;;;;13.70;7.07;;;15.60;99.90;;;;;;5101810;27;20202;-66
2022/04/13 08:41:12;;;;;;;14.27;7.77;;;15.50;99.90;;;;;;5099357;28;20291;-66
2022/04/13 08:43:45;;;;;;;10.30;7.20;;;15.60;99.90;;;;;;5106141;27;20285;-66
2022/04/13 08:46:19;;;;;;;11.63;7.17;;;15.70;99.90;;;;;;5104895;27;20191;-66
2022/04/13 08:48:52;;;;;;;11.27;7.00;;;15.70;99.90;;;;;;5095833;27;20738;-66
2022/04/13 08:51:41;;;;;;;13.10;6.57;;;15.70;99.90;;;;;;5121957;27;20286;-66
2022/04/13 08:54:19;;;;;;;7.93;7.10;;;15.60;99.90;;;;;;5117294;27;20196;-66
2022/04/13 08:56:51;;;;;;;11.80;7.57;;;15.70;99.90;;;;;;5098402;28;20221;-66
2022/04/13 08:59:48;;;;;;;10.53;7.40;;;15.60;99.90;;;;;;5087992;27;20207;-66
2022/04/13 09:02:27;;;;;;;12.93;7.73;;;15.60;99.90;;;;;;5098187;27;20455;-66
2022/04/13 09:05:00;;;;;;;14.27;7.67;;;15.50;99.90;;;;;;5096116;28;20208;-66
2022/04/13 09:07:33;;;;;;;15.27;8.03;;;15.50;99.90;;;;;;5099825;27;20564;-66
2022/04/13 09:10:03;;;;;;;14.33;7.60;;;15.50;99.90;;;;;;5126653;27;20284;-66
2022/04/13 09:12:36;;;;;;;11.70;8.07;;;15.50;99.90;;;;;;5106597;27;20801;-66
2022/04/13 09:15:06;;;;;;;14.23;7.67;;;15.40;99.90;;;;;;5096850;27;20237;-66
2022/04/13 09:17:36;;;;;;;14.47;8.00;;;15.40;99.90;;;;;;5102025;28;20808;-66
2022/04/13 09:20:05;;;;;;;12.83;7.90;;;15.40;99.90;;;;;;5100314;28;20445;-66
2022/04/13 09:22:35;;;;;;;14.37;8.57;;;15.30;99.90;;;;;;5098589;28;20202;-66
2022/04/13 09:25:06;;;;;;;14.87;8.00;;;15.40;99.90;;;;;;5102011;28;20666;-66
2022/04/13 09:27:37;;;;;;;11.07;8.17;;;15.30;99.90;;;;;;5100399;27;20736;-65
2022/04/13 09:30:08;;;;;;;13.27;8.27;;;15.40;99.90;;;;;;5092442;28;20199;-66
2022/04/13 09:32:36;;;;;;;13.07;8.10;;;15.40;99.90;;;;;;5109794;27;20282;-66
2022/04/13 09:35:07;;;;;;;14.27;8.47;;;15.40;99.90;;;;;;5098244;27;20665;-66
2022/04/13 09:37:35;;;;;;;12.47;7.97;;;15.40;99.90;;;;;;5095927;28;20764;-65
2022/04/13 09:40:04;;;;;;;11.43;8.10;;;15.40;99.90;;;;;;5096437;28;20235;-66
2022/04/13 09:42:33;;;;;;;13.37;8.50;;;15.40;99.90;;;;;;5095643;28;20203;-66
2022/04/13 09:45:04;;;;;;;9.47;7.63;;;15.40;99.90;;;;;;5109486;27;20566;-66
2022/04/13 09:47:34;;;;;;;14.90;8.53;;;15.40;99.90;;;;;;5108440;27;20203;-66
2022/04/13 09:50:02;;;;;;;11.67;7.97;;;15.40;99.90;;;;;;5095946;28;20241;-66
2022/04/13 09:52:39;;;;;;;14.60;7.83;;;15.40;99.90;;;;;;5131069;27;20199;-66
2022/04/13 09:55:09;;;;;;;14.83;8.60;;;15.40;99.90;;;;;;5097879;28;20205;-66
2022/04/13 09:57:38;;;;;;;13.33;8.63;;;15.40;99.90;;;;;;5103833;27;20210;-66
2022/04/13 10:00:10;;;;;;;16.83;9.20;;;15.50;99.90;;;;;;5094810;28;20191;-66
2022/04/13 10:02:40;;;;;;;15.43;9.60;;;15.50;99.90;;;;;;5093386;28;20206;-66
2022/04/13 10:05:49;;;;;;;19.67;10.00;;;15.40;99.90;;;;;;5102530;28;20498;-66
2022/04/13 10:08:22;;;;;;;17.73;10.47;;;15.40;99.90;;;;;;5101783;27;20340;-66
2022/04/13 10:10:52;;;;;;;14.90;9.47;;;15.30;99.90;;;;;;5100604;27;20544;-66
2022/04/13 10:13:34;;;;;;;15.13;10.53;;;15.40;99.90;;;;;;5096110;27;20227;-66
2022/04/13 10:16:07;;;;;;;14.77;9.63;;;15.30;99.90;;;;;;5096424;28;20207;-66
2022/04/13 10:18:56;;;;;;;13.53;9.70;;;15.20;99.90;;;;;;5089883;28;20223;-66
2022/04/13 10:21:47;;;;;;;13.90;10.17;;;15.20;99.90;;;;;;5133406;27;20335;-66
2022/04/13 10:24:26;;;;;;;16.60;10.40;;;15.20;99.90;;;;;;5099090;27;20294;-66
2022/04/13 10:27:02;;;;;;;16.10;10.10;;;15.20;99.90;;;;;;5094327;28;20191;-67
2022/04/13 10:29:32;;;;;;;19.27;10.57;;;15.30;99.90;;;;;;5093206;28;20634;-67
2022/04/13 10:32:07;;;;;;;16.00;10.30;;;15.20;99.90;;;;;;5097804;27;20562;-67
2022/04/13 10:34:37;;;;;;;17.33;11.60;;;15.20;99.90;;;;;;5119506;27;20207;-67
2022/04/13 10:37:07;;;;;;;17.20;11.20;;;15.20;99.90;;;;;;5100934;28;20586;-67
2022/04/13 10:39:36;;;;;;;16.70;11.30;;;15.20;99.90;;;;;;5090853;28;20659;-67
2022/04/13 10:42:07;;;;;;;13.03;10.63;;;15.20;99.90;;;;;;5097782;28;20263;-67
2022/04/13 10:44:38;;;;;;;18.73;12.93;;;15.00;99.90;;;;;;5097745;28;20198;-67
2022/04/13 10:47:09;;;;;;;13.50;11.00;;;15.10;99.90;;;;;;5100059;28;20273;-67
2022/04/13 10:49:48;;;;;;;14.23;11.73;;;15.10;99.90;;;;;;5096766;28;20195;-67
2022/04/13 10:52:24;;;;;;;20.10;11.87;;;15.10;99.90;;;;;;5099455;27;20274;-67
2022/04/13 10:55:01;;;;;;;17.97;10.87;;;15.10;99.90;;;;;;5101551;27;20226;-66
2022/04/13 10:57:36;;;;;;;14.80;10.87;;;15.20;99.90;;;;;;5085866;28;20300;-67
2022/04/13 11:00:07;;;;;;;17.63;11.70;;;15.20;99.90;;;;;;5101370;28;20200;-67
2022/04/13 11:02:43;;;;;;;14.73;11.23;;;15.40;99.90;;;;;;5100574;27;20282;-67
2022/04/13 11:05:13;;;;;;;14.87;10.20;;;15.50;99.90;;;;;;5098926;27;20484;-67
2022/04/13 11:07:42;;;;;;;13.00;10.40;;;15.60;99.90;;;;;;5084127;28;20197;-67
2022/04/13 11:10:16;;;;;;;17.63;11.17;;;15.90;99.90;;;;;;5102726;27;20245;-66
2022/04/13 11:12:46;;;;;;;18.20;11.10;;;16.20;99.90;;;;;;5100610;27;20192;-67
2022/04/13 11:15:42;;;;;;;16.93;10.70;;;16.40;99.90;;;;;;5096186;28;20229;-66
2022/04/13 11:18:16;;;;;;;14.60;10.73;;;16.60;99.90;;;;;;5093143;28;20203;-66
2022/04/13 11:21:06;;;;;;;15.63;10.77;;;16.50;99.90;;;;;;5098941;28;20197;-67
2022/04/13 11:23:56;;;;;;;17.57;11.13;;;16.50;99.90;;;;;;5113267;27;20199;-67
2022/04/13 11:26:27;;;;;;;18.23;11.57;;;16.40;99.90;;;;;;5103654;27;20207;-67
2022/04/13 11:29:16;;;;;;;13.57;10.83;;;16.30;99.90;;;;;;5106324;27;20192;-66
2022/04/13 11:32:09;;;;;;;13.37;10.50;;;16.30;99.90;;;;;;5101265;27;20202;-67
2022/04/13 11:34:44;;;;;;;13.97;10.60;;;16.30;99.90;;;;;;5091546;28;20206;-67
2022/04/13 11:37:17;;;;;;;14.30;11.13;;;16.40;99.90;;;;;;5098987;27;20555;-66
2022/04/13 11:39:54;;;;;;;15.83;11.20;;;16.40;99.90;;;;;;5105501;27;20203;-67
2022/04/13 11:42:55;;;;;;;18.37;10.60;;;16.40;99.90;;;;;;5092694;28;20195;-67
2022/04/13 11:45:25;;;;;;;16.37;10.80;;;16.40;99.90;;;;;;5006958;28;20217;-67
2022/04/13 11:47:56;;;;;;;15.97;10.77;;;16.30;99.90;;;;;;5093482;27;20194;-66
2022/04/13 11:50:26;;;;;;;18.77;11.13;;;16.40;99.90;;;;;;5094600;28;20761;-66
2022/04/13 11:52:58;;;;;;;16.27;10.93;;;16.40;99.90;;;;;;5092244;27;20235;-66
2022/04/13 11:55:31;;;;;;;12.43;10.57;;;16.40;99.90;;;;;;5093044;28;20201;-66
2022/04/13 11:58:23;;;;;;;15.00;11.40;;;16.50;99.90;;;;;;5095499;28;20735;-66
2022/04/13 12:00:55;;;;;;;15.80;10.80;;;16.60;99.90;;;;;;5084835;28;20667;-66
2022/04/13 12:03:26;;;;;;;13.60;10.40;;;16.80;99.90;;;;;;5088231;28;20294;-66
2022/04/13 12:05:58;;;;;;;15.67;10.17;;;16.80;99.90;;;;;;5088328;28;20675;-66
2022/04/13 12:08:28;;;;;;;12.93;10.17;;;16.80;99.90;;;;;;5102986;27;20282;-66
2022/04/13 12:10:59;;;;;;;13.20;10.53;;;16.80;99.90;;;;;;5107719;27;20648;-66
2022/04/13 12:13:29;;;;;;;16.53;10.77;;;16.80;99.90;;;;;;5088896;28;20201;-66
2022/04/13 12:15:58;;;;;;;13.73;11.03;;;16.80;99.90;;;;;;5103114;27;20658;-66
2022/04/13 12:18:27;;;;;;;15.00;11.10;;;16.90;99.90;;;;;;5087309;28;20233;-66
2022/04/13 12:21:11;;;;;;;15.87;11.13;;;16.80;99.90;;;;;;5091011;28;20282;-66
2022/04/13 12:23:41;;;;;;;16.87;11.63;;;16.80;99.90;;;;;;5132679;27;20282;-66
2022/04/13 12:26:11;;;;;;;12.20;10.83;;;16.80;99.90;;;;;;5096124;28;20287;-66
2022/04/13 12:28:39;;;;;;;13.00;11.60;;;16.90;99.90;;;;;;5099899;28;20198;-66
2022/04/13 12:31:11;;;;;;;20.10;12.07;;;16.90;99.90;;;;;;5092576;28;20651;-66
2022/04/13 12:33:40;;;;;;;17.93;12.27;;;17.00;99.90;;;;;;5124171;27;20210;-66
2022/04/13 12:36:12;;;;;;;15.50;12.07;;;17.00;99.90;;;;;;5093329;28;20558;-66
2022/04/13 12:38:43;;;;;;;17.53;11.93;;;16.90;99.90;;;;;;5091738;28;20219;-66
2022/04/13 12:41:13;;;;;;;17.20;12.10;;;16.90;99.90;;;;;;5101040;28;20701;-66
2022/04/13 12:43:42;;;;;;;20.93;11.97;;;16.80;99.90;;;;;;5100504;28;20188;-65
2022/04/13 12:46:13;;;;;;;16.47;11.23;;;16.90;99.90;;;;;;5097207;28;20758;-66
2022/04/13 12:48:42;;;;;;;15.97;12.37;;;17.00;99.90;;;;;;5091764;28;20197;-66